createdAt,value
2018-11-20T00:00:09.417Z,17.37
2018-11-20T00:02:58.128Z,16.20
2018-11-20T00:05:47.237Z,15.50
2018-11-20T00:08:35.878Z,15.30
2018-11-20T00:11:29.065Z,15.70
2018-11-20T00:14:37.199Z,14.53
2018-11-20T00:17:26.264Z,14.80
2018-11-20T00:20:25.686Z,14.07
2018-11-20T00:23:28.024Z,13.83
2018-11-20T00:26:33.306Z,13.53
2018-11-20T00:29:21.996Z,13.73
2018-11-20T00:32:10.792Z,13.40
2018-11-20T00:35:12.842Z,14.17
2018-11-20T00:38:01.826Z,11.50
2018-11-20T00:40:50.527Z,14.10
2018-11-20T00:43:58.704Z,14.23
2018-11-20T00:46:47.669Z,15.00
2018-11-20T00:49:37.239Z,13.70
2018-11-20T00:52:30.450Z,15.40
2018-11-20T00:55:15.674Z,14.70
2018-11-20T00:58:11.786Z,14.30
2018-11-20T01:01:20.004Z,12.87
2018-11-20T01:04:04.714Z,15.60
2018-11-20T01:07:04.120Z,13.33
2018-11-20T01:09:54.305Z,13.23
2018-11-20T01:12:47.130Z,12.40
2018-11-20T01:15:35.811Z,13.20
2018-11-20T01:18:17.876Z,12.30
2018-11-20T01:21:10.809Z,12.27
2018-11-20T01:24:19.143Z,12.50
2018-11-20T01:27:01.360Z,11.63
2018-11-20T01:29:57.300Z,11.53
2018-11-20T01:32:45.969Z,10.83
2018-11-20T01:35:54.168Z,10.00
2018-11-20T01:38:53.257Z,10.40
2018-11-20T01:41:50.402Z,10.10
2018-11-20T01:44:46.667Z,10.30
2018-11-20T01:47:35.161Z,10.20
2018-11-20T01:50:38.026Z,10.40
2018-11-20T01:53:37.170Z,8.53
2018-11-20T01:56:33.226Z,11.33
2018-11-20T01:59:22.632Z,10.10
2018-11-20T02:02:27.730Z,9.37
2018-11-20T02:05:16.480Z,8.53
2018-11-20T02:08:05.113Z,8.97
2018-11-20T02:10:58.001Z,10.67
2018-11-20T02:14:36.351Z,10.83
2018-11-20T02:17:38.942Z,9.73
2018-11-20T02:20:34.007Z,10.90
2018-11-20T02:23:30.141Z,10.93
2018-11-20T02:26:20.325Z,10.93
2018-11-20T02:29:26.847Z,14.00
2018-11-20T02:32:25.911Z,13.07
2018-11-20T02:35:14.365Z,10.77
2018-11-20T02:38:04.487Z,11.53
2018-11-20T02:40:54.561Z,13.47
2018-11-20T02:43:43.311Z,13.30
2018-11-20T02:46:26.692Z,13.50
2018-11-20T02:49:14.477Z,15.67
2018-11-20T02:52:10.797Z,14.57
2018-11-20T02:54:59.761Z,14.67
2018-11-20T02:58:01.897Z,15.57
2018-11-20T03:00:54.829Z,14.50
2018-11-20T03:03:45.000Z,16.83
2018-11-20T03:06:40.278Z,15.13
2018-11-20T03:09:39.297Z,16.17
2018-11-20T03:12:29.447Z,15.57
2018-11-20T03:15:25.380Z,15.40
2018-11-20T03:18:18.112Z,16.77
2018-11-20T03:21:10.043Z,15.27
2018-11-20T03:23:53.491Z,15.40
2018-11-20T03:26:58.699Z,15.33
2018-11-20T03:31:01.610Z,15.17
2018-11-20T03:33:50.181Z,15.10
2018-11-20T03:36:39.900Z,16.40
2018-11-20T03:39:39.933Z,14.70
2018-11-20T03:42:27.612Z,14.83
2018-11-20T03:45:16.571Z,13.20
2018-11-20T03:48:05.641Z,15.20
2018-11-20T03:50:50.495Z,13.50
2018-11-20T03:53:39.205Z,14.63
2018-11-20T03:56:29.320Z,12.87
2018-11-20T03:59:31.390Z,13.53
2018-11-20T04:02:24.048Z,13.50
2018-11-20T04:05:26.290Z,14.50
2018-11-20T04:08:22.124Z,13.77
2018-11-20T04:11:27.289Z,12.53
2018-11-20T04:14:16.361Z,13.83
2018-11-20T04:17:05.010Z,15.20
2018-11-20T04:20:04.146Z,13.93
2018-11-20T04:23:02.476Z,12.30
2018-11-20T04:25:55.767Z,12.70
2018-11-20T04:28:36.636Z,13.60
2018-11-20T04:32:17.921Z,13.77
2018-11-20T04:35:13.972Z,13.60
2018-11-20T04:38:06.909Z,14.53
2018-11-20T04:40:54.122Z,14.13
2018-11-20T04:43:42.055Z,12.30
2018-11-20T04:46:30.540Z,13.90
2018-11-20T04:49:32.305Z,14.73
2018-11-20T04:52:28.346Z,15.33
2018-11-20T04:55:33.411Z,15.97
2018-11-20T04:58:19.957Z,13.83
2018-11-20T05:01:15.919Z,16.03
2018-11-20T05:04:04.832Z,15.70
2018-11-20T05:06:53.522Z,15.20
2018-11-20T05:09:52.392Z,15.10
2018-11-20T05:12:50.161Z,15.07
2018-11-20T05:15:52.224Z,16.90
2018-11-20T05:18:57.756Z,17.77
2018-11-20T05:21:50.693Z,15.83
2018-11-20T05:24:35.072Z,15.77
2018-11-20T05:27:33.995Z,19.43
2018-11-20T05:30:22.829Z,17.47
2018-11-20T05:33:25.370Z,16.53
2018-11-20T05:36:06.107Z,19.07
2018-11-20T05:38:54.722Z,18.00
2018-11-20T05:41:43.266Z,17.37
2018-11-20T05:44:31.889Z,18.20
2018-11-20T05:47:30.908Z,17.50
2018-11-20T05:50:33.294Z,15.67
2018-11-20T05:53:22.072Z,15.90
2018-11-20T05:56:24.191Z,15.00
2018-11-20T05:59:12.802Z,17.43
2018-11-20T06:01:56.682Z,13.63
2018-11-20T06:04:47.009Z,17.20
2018-11-20T06:07:37.198Z,16.43
2018-11-20T06:10:32.033Z,17.93
2018-11-20T06:13:22.240Z,15.83
2018-11-20T06:16:05.342Z,15.70
2018-11-20T06:19:10.123Z,14.53
2018-11-20T06:22:00.068Z,14.33
2018-11-20T06:25:02.107Z,14.13
2018-11-20T06:27:49.394Z,16.20
2018-11-20T06:30:33.932Z,12.70
2018-11-20T06:33:39.171Z,13.23
2018-11-20T06:36:41.380Z,15.70
2018-11-20T06:39:23.309Z,12.40
2018-11-20T06:42:12.323Z,14.53
2018-11-20T06:45:08.565Z,13.80
2018-11-20T06:48:01.735Z,12.60
2018-11-20T06:50:50.582Z,12.67
2018-11-20T06:53:43.359Z,13.30
2018-11-20T06:56:33.595Z,14.20
2018-11-20T06:59:26.318Z,12.17
2018-11-20T07:02:19.206Z,13.40
2018-11-20T07:05:24.123Z,13.20
2018-11-20T07:08:13.073Z,13.87
2018-11-20T07:11:03.071Z,14.50
2018-11-20T07:14:06.400Z,14.30
2018-11-20T07:17:01.725Z,14.60
2018-11-20T07:19:58.503Z,14.40
2018-11-20T07:22:51.448Z,14.47
2018-11-20T07:25:53.378Z,14.63
2018-11-20T07:28:46.447Z,13.90
2018-11-20T07:31:39.601Z,14.83
2018-11-20T07:34:28.230Z,13.63
2018-11-20T07:37:33.249Z,16.97
2018-11-20T07:40:41.767Z,12.80
2018-11-20T07:43:41.249Z,13.20
2018-11-20T07:46:30.167Z,12.40
2018-11-20T07:49:26.108Z,12.93
2018-11-20T07:52:14.901Z,12.90
2018-11-20T07:55:03.451Z,13.23
2018-11-20T07:57:53.620Z,12.70
2018-11-20T08:00:56.535Z,13.87
2018-11-20T08:03:46.751Z,12.80
2018-11-20T08:06:34.465Z,13.50
2018-11-20T08:09:42.299Z,12.73
2018-11-20T08:12:47.467Z,12.33
2018-11-20T08:15:49.457Z,13.60
2018-11-20T08:18:44.582Z,15.17
2018-11-20T08:21:34.777Z,17.33
2018-11-20T08:24:31.114Z,17.20
2018-11-20T08:27:36.544Z,18.33
2018-11-20T08:30:30.758Z,16.50
2018-11-20T08:33:29.842Z,18.50
2018-11-20T08:36:38.026Z,17.23
2018-11-20T08:39:35.847Z,13.33
2018-11-20T08:42:24.746Z,13.03
2018-11-20T08:45:23.779Z,12.07
2018-11-20T08:48:16.777Z,11.93
2018-11-20T08:51:05.685Z,12.93
2018-11-20T08:54:13.950Z,10.90
2018-11-20T08:57:16.081Z,10.13
2018-11-20T09:00:06.296Z,12.20
2018-11-20T09:02:54.857Z,9.90
2018-11-20T09:05:51.361Z,9.97
2018-11-20T09:08:40.119Z,10.80
2018-11-20T09:11:38.694Z,9.47
2018-11-20T09:14:31.489Z,9.83
2018-11-20T09:17:33.789Z,9.80
2018-11-20T09:20:27.088Z,9.97
2018-11-20T09:23:19.741Z,10.50
2018-11-20T09:26:08.747Z,10.00
2018-11-20T09:28:57.583Z,10.10
2018-11-20T09:31:46.368Z,10.20
2018-11-20T09:34:39.301Z,10.40
2018-11-20T09:37:28.130Z,10.47
2018-11-20T09:40:56.598Z,11.27
2018-11-20T09:44:01.037Z,11.40
2018-11-20T09:47:00.137Z,10.50
2018-11-20T09:49:53.343Z,10.50
2018-11-20T09:52:42.244Z,9.63
2018-11-20T09:55:36.097Z,12.10
2018-11-20T09:58:32.002Z,11.07
2018-11-20T10:01:30.379Z,9.00
2018-11-20T10:04:32.273Z,9.33
2018-11-20T10:07:21.124Z,9.50
2018-11-20T10:10:29.283Z,9.00
2018-11-20T10:13:37.460Z,7.70
2018-11-20T10:16:21.026Z,7.43
2018-11-20T10:19:17.263Z,7.20
2018-11-20T10:22:06.153Z,7.50
2018-11-20T10:24:56.295Z,8.77
2018-11-20T10:27:55.291Z,7.20
2018-11-20T10:30:54.540Z,7.40
2018-11-20T10:34:02.915Z,5.87
2018-11-20T10:37:01.849Z,5.80
2018-11-20T10:39:50.463Z,5.37
2018-11-20T10:42:39.274Z,4.83
2018-11-20T10:45:41.842Z,6.50
2018-11-20T10:48:43.940Z,5.03
2018-11-20T10:51:36.685Z,5.13
2018-11-20T10:54:19.073Z,4.23
2018-11-20T10:57:11.898Z,5.10
2018-11-20T11:00:00.724Z,4.53
2018-11-20T11:02:49.378Z,5.00
2018-11-20T11:05:53.260Z,4.53
2018-11-20T11:08:43.009Z,4.40
2018-11-20T11:11:39.163Z,5.50
2018-11-20T11:14:44.469Z,6.10
2018-11-20T11:17:37.695Z,5.13
2018-11-20T11:20:34.111Z,5.40
2018-11-20T11:23:26.849Z,5.23
2018-11-20T11:26:17.159Z,5.47
2018-11-20T11:29:07.848Z,5.13
2018-11-20T11:32:09.851Z,5.20
2018-11-20T11:34:58.773Z,6.70
2018-11-20T11:37:51.616Z,5.37
2018-11-20T11:40:48.549Z,4.73
2018-11-20T11:43:37.144Z,5.20
2018-11-20T11:46:39.616Z,5.57
2018-11-20T11:49:28.241Z,4.97
2018-11-20T11:52:17.386Z,5.80
2018-11-20T11:55:10.054Z,5.53
2018-11-20T11:57:58.983Z,6.90
2018-11-20T12:00:51.893Z,8.27
2018-11-20T12:03:45.135Z,6.23
2018-11-20T12:06:35.736Z,6.30
2018-11-20T12:09:37.251Z,6.27
2018-11-20T12:12:25.771Z,6.93
2018-11-20T12:15:18.816Z,6.30
2018-11-20T12:18:27.550Z,6.50
2018-11-20T12:21:23.763Z,7.50
2018-11-20T12:24:13.088Z,6.43
2018-11-20T12:27:07.523Z,6.53
2018-11-20T12:30:03.677Z,5.70
2018-11-20T12:32:53.840Z,5.47
2018-11-20T12:35:49.728Z,5.33
2018-11-20T12:38:31.815Z,6.33
2018-11-20T12:41:19.797Z,6.17
2018-11-20T12:44:08.600Z,4.93
2018-11-20T12:47:01.818Z,7.07
2018-11-20T12:50:10.682Z,6.40
2018-11-20T12:53:09.025Z,5.20
2018-11-20T12:55:59.109Z,5.67
2018-11-20T12:59:07.188Z,5.60
2018-11-20T13:01:57.314Z,5.97
2018-11-20T13:04:46.050Z,5.70
2018-11-20T13:07:45.719Z,5.00
2018-11-20T13:10:53.682Z,7.00
2018-11-20T13:13:47.977Z,4.30
2018-11-20T13:16:39.526Z,4.07
2018-11-20T13:19:40.932Z,4.87
2018-11-20T13:22:27.359Z,4.13
2018-11-20T13:25:17.013Z,4.80
2018-11-20T13:28:05.719Z,4.07
2018-11-20T13:31:05.955Z,7.67
2018-11-20T13:34:20.657Z,5.70
2018-11-20T13:37:02.869Z,5.20
2018-11-20T13:39:57.178Z,4.10
2018-11-20T13:42:51.872Z,4.30
2018-11-20T13:45:43.861Z,5.20
2018-11-20T13:48:43.032Z,4.83
2018-11-20T13:51:48.292Z,7.47
2018-11-20T13:54:44.018Z,10.03
2018-11-20T13:57:28.204Z,11.87
2018-11-20T14:00:18.730Z,5.73
2018-11-20T14:03:07.615Z,5.50
2018-11-20T14:06:09.733Z,5.97
2018-11-20T14:09:05.863Z,6.30
2018-11-20T14:11:56.058Z,4.80
2018-11-20T14:14:51.978Z,4.80
2018-11-20T14:17:57.512Z,4.80
2018-11-20T14:20:56.697Z,5.00
2018-11-20T14:23:45.726Z,4.80
2018-11-20T14:26:35.996Z,5.70
2018-11-20T14:29:19.042Z,6.10
2018-11-20T14:32:17.402Z,5.50
2018-11-20T14:34:58.608Z,5.53
2018-11-20T14:38:06.826Z,5.60
2018-11-20T14:41:04.491Z,5.97
2018-11-20T14:43:51.449Z,5.57
2018-11-20T14:46:40.500Z,5.70
2018-11-20T14:49:40.925Z,5.87
2018-11-20T14:52:32.448Z,5.73
2018-11-20T14:55:25.182Z,5.80
2018-11-20T14:58:17.007Z,5.53
2018-11-20T15:01:06.064Z,5.23
2018-11-20T15:04:02.412Z,6.17
2018-11-20T15:06:50.912Z,6.20
2018-11-20T15:09:39.613Z,5.87
2018-11-20T15:12:28.160Z,6.10
2018-11-20T15:15:24.171Z,6.30
2018-11-20T15:18:12.822Z,6.00
2018-11-20T15:21:11.941Z,5.80
2018-11-20T15:24:00.532Z,9.73
2018-11-20T15:27:08.827Z,8.70
2018-11-20T15:29:57.534Z,6.70
2018-11-20T15:32:46.481Z,6.87
2018-11-20T15:35:39.860Z,6.10
2018-11-20T15:38:42.013Z,7.10
2018-11-20T15:41:33.133Z,6.83
2018-11-20T15:44:20.286Z,6.43
2018-11-20T15:47:07.006Z,7.00
2018-11-20T15:49:55.858Z,6.30
2018-11-20T15:52:52.146Z,5.90
2018-11-20T15:55:51.719Z,6.30
2018-11-20T15:58:41.956Z,11.20
2018-11-20T16:01:33.110Z,6.63
2018-11-20T16:04:21.909Z,7.27
2018-11-20T16:07:10.838Z,6.80
2018-11-20T16:09:53.717Z,7.03
2018-11-20T16:12:52.497Z,6.60
2018-11-20T16:15:46.907Z,7.50
2018-11-20T16:18:32.946Z,7.40
2018-11-20T16:21:19.808Z,7.40
2018-11-20T16:24:08.439Z,8.00
2018-11-20T16:26:59.266Z,7.20
2018-11-20T16:30:01.128Z,7.57
2018-11-20T16:32:51.143Z,8.10
2018-11-20T16:35:34.045Z,8.70
2018-11-20T16:38:36.021Z,8.20
2018-11-20T16:41:32.826Z,9.63
2018-11-20T16:44:22.031Z,9.33
2018-11-20T16:47:18.078Z,12.20
2018-11-20T16:50:05.877Z,9.53
2018-11-20T16:52:55.373Z,8.80
2018-11-20T16:55:44.006Z,8.53
2018-11-20T16:58:31.592Z,9.10
2018-11-20T17:01:24.730Z,9.30
2018-11-20T17:04:26.714Z,9.30
2018-11-20T17:07:16.838Z,9.07
2018-11-20T17:10:17.087Z,8.40
2018-11-20T17:13:03.583Z,9.03
2018-11-20T17:15:52.550Z,9.07
2018-11-20T17:19:01.040Z,9.70
2018-11-20T17:21:53.337Z,11.67
2018-11-20T17:24:42.441Z,11.50
2018-11-20T17:27:27.950Z,9.60
2018-11-20T17:30:16.658Z,8.33
2018-11-20T17:33:06.884Z,8.77
2018-11-20T17:36:02.978Z,8.97
2018-11-20T17:38:51.532Z,9.43
2018-11-20T17:41:40.253Z,9.67
2018-11-20T17:44:30.492Z,9.30
2018-11-20T17:47:38.960Z,10.50
2018-11-20T17:50:33.219Z,11.17
2018-11-20T17:53:26.532Z,10.47
2018-11-20T17:56:25.450Z,9.87
2018-11-20T17:59:30.655Z,9.57
2018-11-20T18:02:38.948Z,9.37
2018-11-20T18:05:34.967Z,9.33
2018-11-20T18:08:18.835Z,10.70
2018-11-20T18:11:08.034Z,10.23
2018-11-20T18:14:06.803Z,9.00
2018-11-20T18:16:59.952Z,9.33
2018-11-20T18:19:58.965Z,10.40
2018-11-20T18:23:07.387Z,10.37
2018-11-20T18:26:09.587Z,10.60
2018-11-20T18:28:59.116Z,10.37
2018-11-20T18:31:51.165Z,11.03
2018-11-20T18:34:53.430Z,10.70
2018-11-20T18:37:43.604Z,9.90
2018-11-20T18:40:29.393Z,12.20
2018-11-20T18:43:19.624Z,12.23
2018-11-20T18:46:08.744Z,11.53
2018-11-20T18:48:54.658Z,9.70
2018-11-20T18:52:02.467Z,12.70
2018-11-20T18:55:04.512Z,14.87
2018-11-20T18:57:46.606Z,12.10
2018-11-20T19:00:48.595Z,12.10
2018-11-20T19:03:47.753Z,13.17
2018-11-20T19:06:49.840Z,15.47
2018-11-20T19:09:51.129Z,14.30
2018-11-20T19:12:41.345Z,13.17
2018-11-20T19:15:51.031Z,15.00
2018-11-20T19:18:51.686Z,14.47
2018-11-20T19:21:57.097Z,14.50
2018-11-20T19:24:50.461Z,12.30
2018-11-20T19:27:49.471Z,18.30
2018-11-20T19:30:39.818Z,14.30
2018-11-20T19:33:28.437Z,16.60
2018-11-20T19:36:17.072Z,14.37
2018-11-20T19:39:07.282Z,16.47
2018-11-20T19:42:12.687Z,14.40
2018-11-20T19:45:18.266Z,18.40
2018-11-20T19:48:02.141Z,14.17
2018-11-20T19:50:57.821Z,12.60
2018-11-20T19:53:57.482Z,14.30
2018-11-20T19:56:46.031Z,12.37
2018-11-20T19:59:34.838Z,11.80
2018-11-20T20:02:23.809Z,12.10
2018-11-20T20:05:25.949Z,13.97
2018-11-20T20:08:13.318Z,13.13
2018-11-20T20:12:10.329Z,16.43
2018-11-20T20:15:02.253Z,14.20
2018-11-20T20:18:06.361Z,14.70
2018-11-20T20:21:10.172Z,15.60
2018-11-20T20:23:59.158Z,17.70
2018-11-20T20:26:46.742Z,15.97
2018-11-20T20:29:34.340Z,13.60
2018-11-20T20:32:14.862Z,16.47
2018-11-20T20:35:03.958Z,14.80
2018-11-20T20:37:58.830Z,15.43
2018-11-20T20:40:56.894Z,16.00
2018-11-20T20:43:54.529Z,16.77
2018-11-20T20:46:42.200Z,14.67
2018-11-20T20:49:30.600Z,15.90
2018-11-20T20:52:25.741Z,15.50
2018-11-20T20:55:20.630Z,15.10
2018-11-20T20:57:56.340Z,15.10
2018-11-20T21:00:50.212Z,17.27
2018-11-20T21:03:44.903Z,17.40
2018-11-20T21:06:34.918Z,15.60
2018-11-20T21:09:24.685Z,16.97
2018-11-20T21:12:12.225Z,16.33
2018-11-20T21:15:20.903Z,16.10
2018-11-20T21:18:03.368Z,15.10
2018-11-20T21:20:52.038Z,16.93
2018-11-20T21:23:50.038Z,16.97
2018-11-20T21:26:39.195Z,18.17
2018-11-20T21:29:37.006Z,17.70
2018-11-20T21:32:28.127Z,16.67
2018-11-20T21:35:25.888Z,20.33
2018-11-20T21:38:13.723Z,17.10
2018-11-20T21:41:02.664Z,16.43
2018-11-20T21:43:57.487Z,19.20
2018-11-20T21:46:52.188Z,16.43
2018-11-20T21:49:40.203Z,18.27
2018-11-20T21:52:35.131Z,16.33
2018-11-20T21:55:25.269Z,19.70
2018-11-20T21:58:11.332Z,17.80
2018-11-20T22:01:09.758Z,18.67
2018-11-20T22:04:10.625Z,19.17
2018-11-20T22:06:55.241Z,20.20
2018-11-20T22:09:43.156Z,21.20
2018-11-20T22:12:35.305Z,19.50
2018-11-20T22:15:24.300Z,19.47
2018-11-20T22:18:11.853Z,20.30
2018-11-20T22:21:15.928Z,21.13
2018-11-20T22:24:16.906Z,16.20
2018-11-20T22:27:08.497Z,17.50
2018-11-20T22:29:55.806Z,19.13
2018-11-20T22:32:50.631Z,17.27
2018-11-20T22:35:39.591Z,17.17
2018-11-20T22:38:47.035Z,16.90
2018-11-20T22:41:36.051Z,17.23
2018-11-20T22:44:23.915Z,17.40
2018-11-20T22:47:24.872Z,17.47
2018-11-20T22:50:16.490Z,18.50
2018-11-20T22:53:08.276Z,19.07
2018-11-20T22:55:57.186Z,17.10
2018-11-20T22:58:50.776Z,18.43
2018-11-20T23:01:38.445Z,17.30
2018-11-20T23:04:42.197Z,16.93
2018-11-20T23:07:31.202Z,18.57
2018-11-20T23:10:01.140Z,17.20
2018-11-20T23:12:31.266Z,17.73
2018-11-20T23:15:01.323Z,17.33
2018-11-20T23:17:31.342Z,17.73
2018-11-20T23:20:01.316Z,19.27
2018-11-20T23:22:31.496Z,18.53
2018-11-20T23:25:01.493Z,18.30
2018-11-20T23:27:31.694Z,16.70
2018-11-20T23:30:02.078Z,18.43
2018-11-20T23:32:32.048Z,13.80
2018-11-20T23:35:01.992Z,15.80
2018-11-20T23:37:31.989Z,16.30
2018-11-20T23:40:01.988Z,14.70
2018-11-20T23:42:32.346Z,16.97
2018-11-20T23:45:02.471Z,15.70
2018-11-20T23:47:32.465Z,17.53
2018-11-20T23:50:02.566Z,17.30
2018-11-20T23:52:32.674Z,17.53
2018-11-20T23:55:02.732Z,17.60
2018-11-20T23:57:32.723Z,18.17
